Yushe, China
Current Conditions -  °F | °C
As of 9:30 PM on Friday 24 Oct 2014 (Local Time) from ZBYN Reporting Station
Haze Haze  
Wind Chill: 54°   Ceiling: Unl
Heat Index: 54°   Visibility: 1.8mi
Dew Point: 43°   Wind: 4mph
Humidity: 67%   Direction: 70°ENE
Pressure: 29.97"   Gusts: NA
Location:  37.07°N, 112.98°E
Report Text: ZBYN 241330Z 07002MPS 3000 HZ NSC 12/06 Q1015 NOSIG
Loading
Personal Weather Stations






























Interactive Weather Map
Tropical Storm Tracking
New forecast layout! Learn more

10-Day Weather Forecast

Advertisements
Track Severe Weather on mobile